福島空港の過去48時間の天気

福島空港 (Fukushima)

現在時刻: 1/23 14:53 JST (1/23 05:53 UTC) 以下の時間は現地時間です。

過去48時間のMETAR気象情報
時間 風向 風速(m/s) 視程 気温(℃) 湿度(%) 気圧(hPa) 天気現象
23 14:00 南南西 3 10km以上 2 100 999 弱いしゅう雪
23 13:40 4 8,000m 1 100 999 弱いしゅう雪
23 13:32 南西 2 4,000m 1 100 999 弱いしゅう雪
23 13:00 北西 3 10km以上 1 100 1000 弱いしゅう雪
23 12:00 南南西 2 10km以上 2 100 1000
23 11:00 3 10km以上 1 100 1001
23 10:00 3 10km以上 -1 100 1002
23 09:15 南東 2 10km以上 -2 100 1003 周辺で霧
23 09:00 南南東 3 4,000m -3 100 1004 もや
23 08:29 南東 2 2,000m -3 100 1004 散在した霧 もや
23 08:13 南東 2 1,500m -4 100 1004 散在した霧 もや
23 08:00 南南東 2 600m -3 100 1004 氷霧
23 07:48 2 600m -4 100 1004 氷霧
23 07:28 南南西 1 800m -4 100 1004 氷霧
23 07:18 南南西 2 400m -4 100 1004 氷霧
23 07:03 不定 1 300m -5 100 1004 氷霧
23 07:00 不定 1 400m -5 100 1004 氷霧
23 06:40 西南西 2 10km以上 -4 100 1004 部分霧
22 20:46 6 900m -4 100 1010
22 20:00 7 700m -4 100 1011
22 19:24 7 500m -5 100 1012
22 19:00 6 900m -5 100 1012
22 18:21 6 900m -4 100 1013
22 18:00 北北西 6 500m -4 100 1014
22 17:40 6 500m -4 100 1014
22 17:28 北北西 6 500m -4 100 1014
22 17:11 北北西 5 1,500m -4 100 1014 弱い雪
22 17:00 北北西 6 2,000m -4 100 1014 弱い雪
22 16:35 6 2,000m -4 100 1014 弱い雪
22 16:15 4 2,000m -4 100 1014 弱い雪
22 16:00 北北東 4 1,500m -4 100 1015 弱い雪
22 15:35 4 1,500m -4 100 1015 弱い雪
22 15:16 北北東 3 1,000m -4 100 1015 弱い雪
22 15:00 北東 4 1,500m -3 100 1015 弱い雪
22 14:22 東南東 4 1,000m -3 100 1015 弱い雪
22 14:15 東南東 4 3,000m -2 74 1016 弱い雪
22 14:00 東南東 4 6,000m -1 59 1015 弱い雪
22 13:00 南東 2 10km以上 -1 59 1017
22 12:00 北北西 2 10km以上 -1 59 1017
22 11:00 3 10km以上 -1 59 1019
22 10:00 不定 1 10km以上 -1 59 1020
22 09:00 3 10km以上 -2 64 1021
22 08:00 北北東 3 10km以上 -2 69 1020
22 07:00 北北東 5 10km以上 -3 74 1020
22 06:40 北北東 5 10km以上 -3 74 1019
RJSF 230500Z 20005KT 160V240 9999 -SHSN FEW010 SCT015 BKN025 02/02 Q0999
RJSF 230440Z 19007KT 140V240 8000 -SHSN FEW010 SCT015 BKN020 01/01 Q0999 RMK 2ST010 4CU015 6CU020 A2950
RJSF 230432Z 23004KT 120V290 4000 -SHSN FEW010 BKN015 BKN020 01/01 Q0999 RMK 1ST010 5CU015 6CU020 A2951
RJSF 230400Z 31006KT 260V340 9999 -SHSN FEW010 BKN015 BKN020 01/01 Q1000
RJSF 230300Z 21004KT 150V250 9999 FEW010 SCT015 BKN020 02/02 Q1000
RJSF 230200Z 19006KT 9999 FEW015 BKN020 01/01 Q1001
RJSF 230100Z 19005KT 9999 FEW010 SCT030 M01/M01 Q1002
RJSF 230015Z 14004KT 9999 VCFG FEW003 M02/M02 Q1003 RMK 1ST003 A2964 FG S-SW
RJSF 230000Z 15005KT 4000 BR FEW001 BKN002 M03/M03 Q1004
RJSF 222329Z 13004KT 2000 BCFG BR FEW001 BKN002 M03/M03 Q1004 RMK 1ST001 7ST002 A2965
RJSF 222313Z 14004KT 1500 R01/1100VP1800U BCFG BR FEW001 BKN002 M04/M04 Q1004 RMK 1ST001 7ST002 A2967
RJSF 222300Z 15003KT 120V190 0600 R01/1100V1600D FZFG SCT001 BKN002 M03/M03 Q1004
RJSF 222248Z 18003KT 140V210 0600 R01/0400V1800D FZFG SCT001 BKN002 M04/M04 Q1004 RMK 4ST001 7ST002 A2967
RJSF 222228Z 20002KT 0800 R01/0500V1500U FZFG FEW001 BKN002 M04/M04 Q1004 RMK 1ST001 7ST002 A2966
RJSF 222218Z 21003KT 170V250 0400 R01/0250V0700U FZFG VV002 M04/M04 Q1004 RMK A2966
RJSF 222203Z VRB02KT 0300 R01/0200V0800D FZFG VV001 M05/M05 Q1004 RMK A2965
RJSF 222200Z VRB02KT 0400 R01/0250V1000N FZFG VV001 M05/M05 Q1004
RJSF 222140Z 24003KT 210V290 9999 PRFG FEW030 M04/M04 Q1004 RMK 1CU030 A2965 4000S-SW
RJSF 221146Z 35011KT 0900 R01/P1800N SN FEW005 SCT008 BKN010 M04/M04 Q1010 RMK 1ST005 3ST008 7ST010 A2985
RJSF 221100Z 36014KT 0700 R01/1500U SN FEW005 BKN006 BKN007 M04/M04 Q1011
RJSF 221024Z 35013KT 0500 R01/1300VP1800D SN FEW006 SCT007 BKN008 M05/M05 Q1012 RMK 2ST006 4ST007 5ST008 A2988
RJSF 221000Z 35012KT 0900 R01/P1800D SN FEW007 BKN009 M05/M05 Q1012
RJSF 220921Z 35011KT 0900 R01/1800U SN FEW003 SCT007 BKN008 M04/M04 Q1013 RMK 1ST003 4ST007 6ST008 A2992
RJSF 220900Z 34012KT 0500 R01/1200V1600D SN FEW003 BKN006 BKN007 M04/M04 Q1014
RJSF 220840Z 35012KT 0500 R01/1100N SN FEW003 SCT005 BKN006 M04/M04 Q1014 RMK 1ST003 3ST005 7ST006 A2995
RJSF 220828Z 34011KT 0500 R01/1300VP1800D SN FEW003 BKN004 BKN005 M04/M04 Q1014 RMK 2ST003 5ST004 6ST005 A2995
RJSF 220811Z 33010KT 1500 R01/P1800N -SN SCT003 BKN004 M04/M04 Q1014 RMK 4ST003 7ST004 A2996
RJSF 220800Z 34012KT 2000 -SN BKN003 BKN004 M04/M04 Q1014
RJSF 220735Z 35011KT 2000 -SN FEW003 BKN004 BKN020 M04/M04 Q1014 RMK 2ST003 5ST004 7SC020 A2996
RJSF 220715Z 36008KT 2000 -SN FEW003 BKN015 BKN020 M04/M04 Q1014 RMK 1ST003 5SC015 7SC020 A2996
RJSF 220700Z 02008KT 1500 R01/1700U -SN FEW005 SCT010 BKN015 M04/M04 Q1015
RJSF 220635Z 01008KT 1500 R01/1500VP1800U -SN FEW004 SCT010 BKN015 M04/M04 Q1015 RMK 1ST004 4ST010 7SC015 A2998
RJSF 220616Z 03006KT 350V080 1000 R01/1200VP1800D -SN FEW004 SCT010 BKN012 M04/M04 Q1015 RMK 1ST004 4ST010 7ST012 A2999
RJSF 220600Z 05008KT 020V100 1500 R01/P1800U -SN FEW009 BKN010 BKN015 M03/M03 Q1015
RJSF 220522Z 11007KT 080V140 1000 R01/1100VP1800D -SN SCT010 SCT015 BKN020 M03/M03 Q1015 RMK 3ST010 4SC015 7SC020 A3000
RJSF 220515Z 11007KT 080V140 3000 -SN FEW012 SCT020 BKN030 M02/M06 Q1016 RMK 1ST012 4SC020 7SC030 A3000
RJSF 220500Z 11007KT 6000 -SN FEW030 BKN040 M01/M08 Q1015
RJSF 220400Z 13004KT 050V190 9999 FEW025 BKN040 BKN080 M01/M08 Q1017
RJSF 220300Z 33003KT 270V010 9999 FEW035 BKN040 BKN110 M01/M08 Q1017
RJSF 220200Z 35005KT 320V020 9999 SCT040 BKN050 BKN/// M01/M08 Q1019
RJSF 220100Z VRB02KT 9999 SCT040 BKN050 BKN/// M01/M08 Q1020
RJSF 220000Z 01006KT 9999 FEW040 SCT050 BKN/// M02/M08 Q1021
RJSF 212300Z 02005KT 9999 FEW050 SCT120 BKN/// M02/M07 Q1020
RJSF 212200Z 02009KT CAVOK M03/M07 Q1020
RJSF 212140Z 02010KT CAVOK M03/M07 Q1019 RMK A3011